Terminal Aerodrome Forecast
Issued by NWS Shreveport, LA

Home | Current Version | Previous Version | Text Only | Print | Product List | Glossary On
Versions: 1 2 3 4 5 6 7 8 9 10 11 12 13 14 15
413
FTUS44 KSHV 071721
TAFLFK
TAF
KLFK 071721Z 0718/0818 14006KT P6SM BKN015 OVC100
     FM080400 VRB05KT 6SM BR VCSH OVC010
      TEMPO 0805/0809 4SM -SHRA BR OVC008
     FM080900 02008KT 6SM -RA BR SCT004 OVC007
     FM081400 36010G16KT P6SM VCSH OVC012=

USA.gov is the U.S. government's official web portal to all federal, state and local government web resources and services.